Angra Dos Reis, Brazil

7:37 PM BRT on September 01, 2014 (GMT -0300)
Santa Cruz Air Base | Change Station
CLOSE
Current Station
Airport
Location: Santa Cruz,
Elevation: 10 ft
Nearby Weather Stations

Elev 10 ft 22.93 °S, 43.72 °W | Updated 37 minutes ago

Clear
Clear
70 °F
Feels Like 70 °F
N
7
Wind Variable Wind from SSW

Today
High -- | Low -- °F
--% Chance of Precip.
Yesterday
High -- | Low -- °F
Precip. -- in
6:07 AM 5:47 PM
Waxing Crescent, 45% visible
Pressure 29.89 in
Visibility -9999.0 miles
Clouds
Dew Point 61 °F
Humidity 73%
Rainfall 0.00 in
Snow Depth Not available.
UV Not available.
Pollen Not available.
Air Quality Not available.
Flu Activity Not available.
METAR SBSC 012200Z 21006KT CAVOK 21/16 Q1012

More Conditions Fewer Conditions

Pressure 29.89 in
Visibility -9999.0 miles
Clouds
Dew Point 61 °F
Humidity 73%
Rainfall 0.00 in
Snow Depth Not available.
UV Not available.
Pollen Not available.
Air Quality Not available.
Flu Activity Not available.
METAR SBSC 012200Z 21006KT CAVOK 21/16 Q1012

More Conditions Fewer Conditions

10-Day Weather Forecast

Almanac

Astronomy

Sep. 01, 2014 Rise Set
Actual Time 6:07 AM BRT 5:47 PM BRT
Civil Twilight 5:45 AM BRT 6:09 PM BRT
Nautical Twilight 5:18 AM BRT 6:35 PM BRT
Astronomical Twilight 4:52 AM BRT 7:01 PM BRT
Moon 10:32 AM BRT 11:59 PM BRT
Length of Visible Light 12h 24m
Length of Day
11h 39m
Tomorrow will be 1m 16s longer.
Waxing Crescent, 45% of the Moon is Illuminated
Today
Waxing Crescent
Sep 2
First Quarter
Sep 8
Full
Sep 15
Last Quarter
Sep 24
New

Today's Extremes

Country Highs Country Lows

Community

WunderPhotos

Upload Photos

1,749,423 photos uploaded!

Nearby

Snow Depth

Not available.

Earthquake Activity

City Distance Mag. Time & Date
No recent earthquake activity has been reported nearby.
Minimum magnitude displayed is 2.5.

Coastal Water Temperatures

Place Temperature
No Stations Reporting

Nearby Weather Stations